createdAt,value
2022-09-30T00:01:54.571Z,99079.22
2022-09-30T00:04:25.330Z,99084.63
2022-09-30T00:06:55.078Z,99089.31
2022-09-30T00:09:23.569Z,99095.25
2022-09-30T00:11:51.440Z,99109.66
2022-09-30T00:14:23.747Z,99102.00
2022-09-30T00:16:51.938Z,99106.59
2022-09-30T00:19:19.623Z,99100.81
2022-09-30T00:21:47.153Z,99110.06
2022-09-30T00:24:14.797Z,99112.88
2022-09-30T00:26:42.409Z,99114.81
2022-09-30T00:29:10.999Z,99116.94
2022-09-30T00:31:39.211Z,99113.88
2022-09-30T00:34:07.068Z,99111.13
2022-09-30T00:36:40.444Z,99106.94
2022-09-30T00:39:09.937Z,99116.28
2022-09-30T00:41:38.010Z,99119.97
2022-09-30T00:45:08.856Z,99127.16
2022-09-30T00:47:50.021Z,99129.84
2022-09-30T00:50:47.527Z,99127.97
2022-09-30T00:53:29.963Z,99132.84
2022-09-30T00:56:21.050Z,99133.09
2022-09-30T00:59:01.579Z,99141.13
2022-09-30T01:01:29.238Z,99144.09
2022-09-30T01:04:10.682Z,99141.00
2022-09-30T01:06:38.554Z,99141.09
2022-09-30T01:09:06.109Z,99138.06
2022-09-30T01:11:34.095Z,99132.50
2022-09-30T01:14:20.463Z,99133.31
2022-09-30T01:17:11.860Z,99133.19
2022-09-30T01:19:44.858Z,99140.84
2022-09-30T01:22:39.995Z,99136.97
2022-09-30T01:25:12.120Z,99144.81
2022-09-30T01:28:23.252Z,99137.81
2022-09-30T01:31:08.221Z,99143.03
2022-09-30T01:33:40.621Z,99143.13
2022-09-30T01:36:58.287Z,99141.84
2022-09-30T01:39:37.644Z,99148.00
2022-09-30T01:42:30.117Z,99159.06
2022-09-30T01:45:47.007Z,99162.91
2022-09-30T01:48:22.114Z,99168.22
2022-09-30T01:51:06.181Z,99177.44
2022-09-30T01:53:55.762Z,99171.34
2022-09-30T01:56:37.219Z,99167.16
2022-09-30T01:59:09.874Z,99159.66
2022-09-30T02:02:11.402Z,99155.53
2022-09-30T02:04:47.431Z,99154.63
2022-09-30T02:07:25.653Z,99157.25
2022-09-30T02:10:07.167Z,99168.56
2022-09-30T02:12:41.584Z,99165.56
2022-09-30T02:15:23.307Z,99170.16
2022-09-30T02:18:00.882Z,99170.78
2022-09-30T02:20:33.260Z,99169.66
2022-09-30T02:23:21.221Z,99168.81
2022-09-30T02:26:07.290Z,99164.50
2022-09-30T02:28:42.622Z,99162.53
2022-09-30T02:31:12.890Z,99160.47
2022-09-30T02:33:50.843Z,99158.78
2022-09-30T02:36:40.737Z,99154.03
2022-09-30T02:39:16.660Z,99160.47
2022-09-30T02:41:52.236Z,99170.31
2022-09-30T02:44:20.583Z,99169.78
2022-09-30T02:47:07.422Z,99179.59
2022-09-30T02:50:20.386Z,99183.72
2022-09-30T02:53:18.978Z,99191.66
2022-09-30T02:56:15.499Z,99187.38
2022-09-30T02:58:44.360Z,99180.94
2022-09-30T03:01:15.721Z,99187.22
2022-09-30T03:03:52.161Z,99188.72
2022-09-30T03:06:21.082Z,99191.38
2022-09-30T03:08:48.603Z,99193.75
2022-09-30T03:11:22.895Z,99191.50
2022-09-30T03:14:24.069Z,99200.50
2022-09-30T03:17:00.747Z,99194.78
2022-09-30T03:20:12.917Z,99203.25
2022-09-30T03:23:17.091Z,99203.44
2022-09-30T03:26:12.312Z,99197.03
2022-09-30T03:29:11.878Z,99201.69
2022-09-30T03:32:09.725Z,99207.41
2022-09-30T03:35:02.584Z,99187.53
2022-09-30T03:38:12.598Z,99185.28
2022-09-30T03:41:01.148Z,99172.97
2022-09-30T03:43:51.650Z,99177.56
2022-09-30T03:46:26.715Z,99184.00
2022-09-30T03:49:00.043Z,99192.44
2022-09-30T03:51:29.725Z,99195.59
2022-09-30T03:53:58.838Z,99204.00
2022-09-30T03:56:30.149Z,99208.22
2022-09-30T03:58:59.364Z,99209.22
2022-09-30T04:01:26.901Z,99205.97
2022-09-30T04:03:55.118Z,99208.03
2022-09-30T04:06:25.359Z,99208.28
2022-09-30T04:08:54.122Z,99207.66
2022-09-30T04:11:22.226Z,99204.09
2022-09-30T04:13:53.024Z,99207.50
2022-09-30T04:16:20.649Z,99229.75
2022-09-30T04:19:29.506Z,99235.13
2022-09-30T04:21:59.085Z,99235.97
2022-09-30T04:24:26.605Z,99242.88
2022-09-30T04:26:54.210Z,99247.16
2022-09-30T04:29:21.897Z,99252.88
2022-09-30T04:31:49.506Z,99256.53
2022-09-30T04:34:17.190Z,99255.09
2022-09-30T04:36:44.856Z,99269.56
2022-09-30T04:39:12.677Z,99272.47
2022-09-30T04:41:40.878Z,99283.22
2022-09-30T04:44:08.556Z,99269.00
2022-09-30T04:46:37.166Z,99262.75
2022-09-30T04:49:08.994Z,99269.91
2022-09-30T04:51:38.575Z,99277.00
2022-09-30T04:54:06.222Z,99276.63
2022-09-30T04:56:33.637Z,99270.81
2022-09-30T04:59:01.110Z,99274.28
2022-09-30T05:01:28.551Z,99274.59
2022-09-30T05:03:55.992Z,99285.53
2022-09-30T05:06:23.447Z,99291.31
2022-09-30T05:08:50.983Z,99290.75
2022-09-30T05:11:21.829Z,99303.94
2022-09-30T05:13:51.140Z,99314.84
2022-09-30T05:16:19.334Z,99321.47
2022-09-30T05:18:47.455Z,99315.63
2022-09-30T05:21:18.200Z,99322.59
2022-09-30T05:23:47.657Z,99327.72
2022-09-30T05:26:15.875Z,99330.56
2022-09-30T05:28:43.828Z,99323.16
2022-09-30T05:31:12.228Z,99321.47
2022-09-30T05:33:41.883Z,99331.00
2022-09-30T05:36:13.907Z,99329.47
2022-09-30T05:38:41.889Z,99344.84
2022-09-30T05:41:12.274Z,99349.41
2022-09-30T05:43:49.996Z,99348.47
2022-09-30T05:46:20.289Z,99339.72
2022-09-30T05:48:48.104Z,99335.69
2022-09-30T05:51:15.553Z,99336.06
2022-09-30T05:53:45.721Z,99334.00
2022-09-30T05:56:14.021Z,99343.59
2022-09-30T05:58:42.177Z,99353.63
2022-09-30T06:01:15.534Z,99352.41
2022-09-30T06:03:45.659Z,99353.28
2022-09-30T06:06:14.954Z,99359.81
2022-09-30T06:08:43.808Z,99363.28
2022-09-30T06:11:14.863Z,99354.91
2022-09-30T06:13:43.592Z,99352.78
2022-09-30T06:16:12.793Z,99351.44
2022-09-30T06:18:41.619Z,99352.84
2022-09-30T06:21:13.191Z,99337.03
2022-09-30T06:23:41.296Z,99347.06
2022-09-30T06:26:11.805Z,99354.50
2022-09-30T06:28:39.987Z,99369.94
2022-09-30T06:31:08.539Z,99371.81
2022-09-30T06:33:35.995Z,99371.41
2022-09-30T06:36:04.841Z,99371.97
2022-09-30T06:38:37.489Z,99394.81
2022-09-30T06:41:05.770Z,99407.88
2022-09-30T06:43:44.622Z,99409.63
2022-09-30T06:46:19.989Z,99419.16
2022-09-30T06:49:12.120Z,99417.38
2022-09-30T06:51:40.723Z,99424.06
2022-09-30T06:54:09.258Z,99424.34
2022-09-30T06:56:37.378Z,99415.78
2022-09-30T06:59:04.909Z,99409.78
2022-09-30T07:01:32.406Z,99418.19
2022-09-30T07:04:00.888Z,99420.81
2022-09-30T07:06:28.398Z,99414.81
2022-09-30T07:08:56.969Z,99414.84
2022-09-30T07:11:25.055Z,99421.81
2022-09-30T07:13:52.790Z,99416.84
2022-09-30T07:16:21.490Z,99408.03
2022-09-30T07:18:49.153Z,99418.38
2022-09-30T07:21:17.463Z,99418.78
2022-09-30T07:23:49.779Z,99424.16
2022-09-30T07:26:23.192Z,99428.00
2022-09-30T07:28:51.705Z,99424.16
2022-09-30T07:31:34.912Z,99428.69
2022-09-30T07:34:07.780Z,99422.19
2022-09-30T07:36:37.917Z,99421.81
2022-09-30T07:39:09.774Z,99427.50
2022-09-30T07:41:39.933Z,99425.91
2022-09-30T07:44:13.347Z,99432.72
2022-09-30T07:46:42.273Z,99442.41
2022-09-30T07:49:15.945Z,99451.47
2022-09-30T07:51:45.607Z,99447.22
2022-09-30T07:54:23.027Z,99444.88
2022-09-30T07:57:09.248Z,99450.34
2022-09-30T07:59:41.723Z,99454.19
2022-09-30T08:02:16.116Z,99463.94
2022-09-30T08:04:44.656Z,99460.84
2022-09-30T08:07:14.999Z,99448.59
2022-09-30T08:09:42.720Z,99447.66
2022-09-30T08:12:10.988Z,99457.41
2022-09-30T08:14:38.487Z,99457.50
2022-09-30T08:17:06.420Z,99459.91
2022-09-30T08:19:34.098Z,99458.19
2022-09-30T08:24:30.214Z,99474.00
2022-09-30T08:26:57.799Z,99480.41
2022-09-30T08:29:49.930Z,99475.91
2022-09-30T08:32:12.856Z,99481.22
2022-09-30T08:35:00.944Z,99483.59
2022-09-30T08:37:28.476Z,99479.56
2022-09-30T08:39:55.891Z,99484.81
2022-09-30T08:42:49.149Z,99484.44
2022-09-30T08:45:36.456Z,99476.84
2022-09-30T08:48:39.147Z,99475.28
2022-09-30T08:51:55.746Z,99472.19
2022-09-30T08:54:29.577Z,99469.97
2022-09-30T08:56:57.725Z,99470.88
2022-09-30T08:59:53.114Z,99475.09
2022-09-30T09:02:59.958Z,99468.69
2022-09-30T09:06:05.548Z,99478.75
2022-09-30T09:09:09.113Z,99471.50
2022-09-30T09:12:08.595Z,99480.41
2022-09-30T09:15:15.582Z,99481.03
2022-09-30T09:18:26.103Z,99487.78
2022-09-30T09:21:22.547Z,99477.69
2022-09-30T09:23:53.295Z,99479.78
2022-09-30T09:26:20.817Z,99486.88
2022-09-30T09:29:04.513Z,99478.19
2022-09-30T09:31:32.083Z,99480.47
2022-09-30T09:34:13.610Z,99477.63
2022-09-30T09:37:02.265Z,99475.59
2022-09-30T09:39:35.440Z,99484.47
2022-09-30T09:42:51.337Z,99488.25
2022-09-30T09:45:58.692Z,99486.63
2022-09-30T09:48:26.860Z,99493.56
2022-09-30T09:51:04.111Z,99491.22
2022-09-30T09:53:49.557Z,99490.41
2022-09-30T09:56:21.307Z,99491.88
2022-09-30T09:59:13.325Z,99491.28
2022-09-30T10:01:46.682Z,99497.13
2022-09-30T10:04:25.679Z,99482.97
2022-09-30T10:07:01.914Z,99483.38
2022-09-30T10:09:39.377Z,99479.78
2022-09-30T10:12:06.764Z,99485.19
2022-09-30T10:14:47.845Z,99486.06
2022-09-30T10:17:31.933Z,99475.53
2022-09-30T10:20:30.230Z,99479.47
2022-09-30T10:23:10.854Z,99479.56
2022-09-30T10:25:38.586Z,99472.56
2022-09-30T10:28:24.907Z,99482.84
2022-09-30T10:31:00.957Z,99482.69
2022-09-30T10:33:48.658Z,99484.59
2022-09-30T10:36:18.912Z,99477.59
2022-09-30T10:39:05.651Z,99479.16
2022-09-30T10:41:37.514Z,99468.69
2022-09-30T10:44:25.063Z,99461.31
2022-09-30T10:47:00.375Z,99460.28
2022-09-30T10:49:58.070Z,99465.66
2022-09-30T10:52:37.508Z,99461.94
2022-09-30T10:55:29.393Z,99466.09
2022-09-30T10:58:19.772Z,99459.31
2022-09-30T11:01:17.919Z,99459.91
2022-09-30T11:04:03.404Z,99457.97
2022-09-30T11:06:34.723Z,99459.19
2022-09-30T11:09:35.287Z,99453.47
2022-09-30T11:12:32.844Z,99446.44
2022-09-30T11:15:35.137Z,99446.72
2022-09-30T11:18:50.447Z,99443.84
2022-09-30T11:21:36.367Z,99440.34
2022-09-30T11:24:20.755Z,99442.16
2022-09-30T11:27:22.375Z,99440.09
2022-09-30T11:30:21.417Z,99438.13
2022-09-30T11:33:23.819Z,99438.63
2022-09-30T11:36:08.556Z,99425.22
2022-09-30T11:38:58.220Z,99425.88
2022-09-30T11:41:46.797Z,99427.63
2022-09-30T11:44:44.105Z,99429.66
2022-09-30T11:47:40.259Z,99423.13
2022-09-30T11:50:39.223Z,99416.41
2022-09-30T11:53:36.410Z,99417.41
2022-09-30T11:56:50.036Z,99420.13
2022-09-30T11:59:35.735Z,99412.38
2022-09-30T12:02:32.495Z,99412.75
2022-09-30T12:05:17.605Z,99410.69
2022-09-30T12:07:52.899Z,99413.25
2022-09-30T12:10:39.301Z,99416.03
2022-09-30T12:13:18.593Z,99409.47
2022-09-30T12:15:48.260Z,99422.63
2022-09-30T12:18:23.079Z,99411.50
2022-09-30T12:21:10.516Z,99411.56
2022-09-30T12:24:37.565Z,99420.53
2022-09-30T12:27:34.893Z,99418.41
2022-09-30T12:30:18.008Z,99425.44
2022-09-30T12:32:51.007Z,99428.34
2022-09-30T12:35:39.753Z,99421.88
2022-09-30T12:38:45.038Z,99423.41
2022-09-30T12:41:55.558Z,99417.09
2022-09-30T13:02:42.612Z,99420.06
2022-09-30T13:05:43.645Z,99423.09
2022-09-30T13:08:32.609Z,99427.97
2022-09-30T13:11:06.247Z,99425.22
2022-09-30T13:13:37.040Z,99426.00
2022-09-30T13:16:07.108Z,99421.78
2022-09-30T13:18:34.630Z,99427.53
2022-09-30T13:21:10.814Z,99427.25
2022-09-30T13:23:52.457Z,99422.00
2022-09-30T13:26:41.716Z,99422.16
2022-09-30T13:29:15.742Z,99423.25
2022-09-30T13:31:46.072Z,99429.19
2022-09-30T13:34:31.539Z,99423.41
2022-09-30T13:37:05.047Z,99418.66
2022-09-30T13:39:52.419Z,99436.31
2022-09-30T13:42:19.769Z,99441.28
2022-09-30T13:45:29.048Z,99432.19
2022-09-30T13:49:03.447Z,99440.94
2022-09-30T13:51:33.768Z,99438.97
2022-09-30T13:54:14.841Z,99434.50
2022-09-30T13:56:44.163Z,99441.97
2022-09-30T13:59:45.136Z,99438.16
2022-09-30T14:03:17.034Z,99444.41
2022-09-30T14:06:03.594Z,99439.25
2022-09-30T14:08:53.610Z,99440.69
2022-09-30T14:12:00.893Z,99446.31
2022-09-30T14:15:08.225Z,99452.53
2022-09-30T14:18:23.230Z,99449.53
2022-09-30T14:21:57.023Z,99444.59
2022-09-30T14:24:37.336Z,99449.81
2022-09-30T14:27:39.755Z,99461.53
2022-09-30T14:30:27.981Z,99463.94
2022-09-30T14:33:21.410Z,99457.97
2022-09-30T14:35:51.558Z,99460.97
2022-09-30T14:38:28.281Z,99466.31
2022-09-30T14:41:08.339Z,99466.56
2022-09-30T14:43:45.653Z,99467.13
2022-09-30T14:46:35.187Z,99472.47
2022-09-30T14:49:10.250Z,99466.38
2022-09-30T14:51:47.167Z,99467.22
2022-09-30T14:54:28.839Z,99464.13
2022-09-30T14:57:01.608Z,99461.78
2022-09-30T14:59:34.690Z,99470.63
2022-09-30T15:02:23.199Z,99465.13
2022-09-30T15:04:59.275Z,99467.69
2022-09-30T15:07:49.249Z,99463.47
2022-09-30T15:10:24.516Z,99469.38
2022-09-30T15:12:53.979Z,99461.28
2022-09-30T15:15:37.391Z,99470.22
2022-09-30T15:18:31.487Z,99466.41
2022-09-30T15:21:10.671Z,99467.06
2022-09-30T15:23:42.550Z,99463.44
2022-09-30T15:26:13.058Z,99460.56
2022-09-30T15:28:40.766Z,99465.00
2022-09-30T15:31:22.760Z,99459.06
2022-09-30T15:34:00.815Z,99459.59
2022-09-30T15:36:28.550Z,99454.78
2022-09-30T15:39:47.522Z,99459.97
2022-09-30T15:42:35.330Z,99459.56
2022-09-30T15:45:34.567Z,99456.75
2022-09-30T15:48:05.555Z,99470.34
2022-09-30T15:50:45.679Z,99466.69
2022-09-30T15:53:36.959Z,99472.03
2022-09-30T15:56:20.124Z,99475.47
2022-09-30T15:59:04.333Z,99473.50
2022-09-30T16:01:49.156Z,99480.75
2022-09-30T16:04:16.563Z,99489.44
2022-09-30T16:06:47.037Z,99486.69
2022-09-30T16:09:25.790Z,99485.56
2022-09-30T16:12:01.033Z,99487.72
2022-09-30T16:14:33.712Z,99488.00
2022-09-30T16:17:06.014Z,99497.03
2022-09-30T16:19:33.617Z,99495.03
2022-09-30T16:22:01.282Z,99507.41
2022-09-30T16:24:32.505Z,99506.06
2022-09-30T16:27:29.210Z,99511.59
2022-09-30T16:29:57.679Z,99510.25
2022-09-30T16:32:25.787Z,99520.06
2022-09-30T16:34:53.840Z,99510.63
2022-09-30T16:37:21.609Z,99515.38
2022-09-30T16:39:50.201Z,99512.50
2022-09-30T16:42:19.384Z,99515.03
2022-09-30T16:44:46.998Z,99516.63
2022-09-30T16:47:17.412Z,99528.78
2022-09-30T16:49:46.937Z,99524.00
2022-09-30T16:52:15.128Z,99526.88
2022-09-30T16:54:42.977Z,99524.44
2022-09-30T16:57:14.294Z,99528.91
2022-09-30T16:59:41.897Z,99530.66
2022-09-30T17:02:15.064Z,99531.19
2022-09-30T17:04:46.842Z,99533.94
2022-09-30T17:07:15.060Z,99532.13
2022-09-30T17:09:43.149Z,99540.16
2022-09-30T17:12:14.791Z,99530.50
2022-09-30T17:14:43.899Z,99531.75
2022-09-30T17:17:13.605Z,99529.53
2022-09-30T17:19:41.615Z,99539.34
2022-09-30T17:22:09.655Z,99537.78
2022-09-30T17:24:38.709Z,99549.34
2022-09-30T17:27:26.161Z,99554.78
2022-09-30T17:29:54.489Z,99563.81
2022-09-30T17:32:22.304Z,99563.16
2022-09-30T17:34:52.884Z,99561.78
2022-09-30T17:37:20.394Z,99569.16
2022-09-30T17:39:47.824Z,99582.84
2022-09-30T17:42:35.186Z,99588.28
2022-09-30T17:45:02.969Z,99590.31
2022-09-30T17:47:31.246Z,99589.22
2022-09-30T17:49:59.658Z,99596.44
2022-09-30T17:52:27.174Z,99599.19
2022-09-30T17:54:56.194Z,99604.91
2022-09-30T17:57:23.603Z,99620.31
2022-09-30T17:59:51.275Z,99611.59
2022-09-30T18:02:20.161Z,99613.53
2022-09-30T18:04:47.682Z,99613.22
2022-09-30T18:07:15.236Z,99616.00
2022-09-30T18:09:45.206Z,99620.13
2022-09-30T18:12:15.224Z,99623.03
2022-09-30T18:14:43.950Z,99630.75
2022-09-30T18:17:11.601Z,99631.56
2022-09-30T18:19:38.995Z,99638.44
2022-09-30T18:22:06.501Z,99643.41
2022-09-30T18:24:52.793Z,99643.81
2022-09-30T18:27:22.667Z,99656.50
2022-09-30T18:29:50.480Z,99658.28
2022-09-30T18:32:19.377Z,99656.44
2022-09-30T18:34:47.960Z,99669.09
2022-09-30T18:37:15.445Z,99661.13
2022-09-30T18:39:45.892Z,99665.34
2022-09-30T18:42:22.551Z,99659.63
2022-09-30T18:44:51.020Z,99658.47
2022-09-30T18:47:19.408Z,99664.59
2022-09-30T18:50:07.099Z,99663.84
2022-09-30T18:52:34.697Z,99661.19
2022-09-30T18:55:02.787Z,99669.22
2022-09-30T18:57:35.651Z,99671.53
2022-09-30T19:00:03.777Z,99670.38
2022-09-30T19:02:32.459Z,99671.53
2022-09-30T19:05:21.038Z,99674.19
2022-09-30T19:08:10.472Z,99676.13
2022-09-30T19:10:42.804Z,99679.56
2022-09-30T19:13:10.586Z,99681.44
2022-09-30T19:15:41.543Z,99683.34
2022-09-30T19:18:11.826Z,99685.28
2022-09-30T19:20:40.126Z,99688.31
2022-09-30T19:23:10.689Z,99686.81
2022-09-30T19:25:39.188Z,99686.81
2022-09-30T19:28:07.809Z,99690.56
2022-09-30T19:30:35.932Z,99691.28
2022-09-30T19:33:03.508Z,99694.75
2022-09-30T19:35:40.438Z,99695.09
2022-09-30T19:38:09.343Z,99696.97
2022-09-30T19:40:37.595Z,99689.00
2022-09-30T19:43:07.190Z,99700.31
2022-09-30T19:45:35.135Z,99700.25
2022-09-30T19:48:05.602Z,99705.47
2022-09-30T19:50:34.759Z,99711.50
2022-09-30T19:53:02.260Z,99711.28
2022-09-30T19:55:31.324Z,99709.38
2022-09-30T19:58:01.085Z,99711.69
2022-09-30T20:00:28.712Z,99713.53
2022-09-30T20:02:57.611Z,99718.88
2022-09-30T20:05:25.476Z,99707.78
2022-09-30T20:07:53.087Z,99716.47
2022-09-30T20:10:20.669Z,99725.22
2022-09-30T20:12:50.966Z,99716.44
2022-09-30T20:15:37.392Z,99717.97
2022-09-30T20:18:05.487Z,99716.06
2022-09-30T20:20:37.143Z,99712.09
2022-09-30T20:23:04.860Z,99709.75
2022-09-30T20:25:36.327Z,99713.19
2022-09-30T20:28:08.172Z,99718.84
2022-09-30T20:30:50.985Z,99712.56
2022-09-30T20:33:24.974Z,99706.13
2022-09-30T20:35:53.191Z,99713.84
2022-09-30T20:38:24.994Z,99719.31
2022-09-30T20:41:00.619Z,99738.22
2022-09-30T20:43:31.985Z,99739.13
2022-09-30T20:46:05.804Z,99743.47
2022-09-30T20:48:38.745Z,99740.00
2022-09-30T20:51:11.270Z,99748.28
2022-09-30T20:53:44.493Z,99748.81
2022-09-30T20:56:21.550Z,99747.28
2022-09-30T20:58:49.990Z,99748.88
2022-09-30T21:01:20.131Z,99751.06
2022-09-30T21:03:50.513Z,99759.56
2022-09-30T21:06:23.945Z,99768.84
2022-09-30T21:09:11.763Z,99768.25
2022-09-30T21:11:42.490Z,99766.59
2022-09-30T21:14:10.015Z,99772.38
2022-09-30T21:16:38.306Z,99769.81
2022-09-30T21:19:05.825Z,99775.94
2022-09-30T21:21:34.872Z,99780.94
2022-09-30T21:24:02.786Z,99779.69
2022-09-30T21:26:30.275Z,99785.59
2022-09-30T21:28:57.722Z,99784.47
2022-09-30T21:31:27.541Z,99784.09
2022-09-30T21:33:58.470Z,99783.50
2022-09-30T21:36:28.233Z,99781.81
2022-09-30T21:39:01.374Z,99779.16
2022-09-30T21:41:29.023Z,99784.13
2022-09-30T21:43:56.535Z,99785.28
2022-09-30T21:46:24.383Z,99774.84
2022-09-30T21:48:53.829Z,99773.25
2022-09-30T21:51:21.717Z,99779.81
2022-09-30T21:53:50.304Z,99785.16
2022-09-30T21:56:20.077Z,99773.00
2022-09-30T21:58:48.764Z,99783.75
2022-09-30T22:01:16.211Z,99788.38
2022-09-30T22:03:43.792Z,99788.88
2022-09-30T22:06:11.688Z,99779.72
2022-09-30T22:08:41.750Z,99783.41
2022-09-30T22:11:16.924Z,99786.66
2022-09-30T22:13:46.734Z,99781.09
2022-09-30T22:16:16.799Z,99784.69
2022-09-30T22:18:44.451Z,99786.38
2022-09-30T22:21:15.803Z,99778.19
2022-09-30T22:23:43.855Z,99782.47
2022-09-30T22:26:18.462Z,99793.94
2022-09-30T22:28:47.950Z,99791.28
2022-09-30T22:31:24.426Z,99797.59
2022-09-30T22:34:16.937Z,99787.94
2022-09-30T22:37:02.987Z,99777.50
2022-09-30T22:39:31.222Z,99781.34
2022-09-30T22:41:59.870Z,99777.97
2022-09-30T22:44:32.107Z,99791.88
2022-09-30T22:47:00.370Z,99804.66
2022-09-30T22:49:32.577Z,99810.81
2022-09-30T22:52:02.082Z,99826.97
2022-09-30T22:54:30.621Z,99818.56
2022-09-30T22:57:01.507Z,99822.38
2022-09-30T22:59:30.331Z,99829.47
2022-09-30T23:01:58.228Z,99843.97
2022-09-30T23:04:27.402Z,99852.38
2022-09-30T23:06:55.781Z,99861.38
2022-09-30T23:09:24.030Z,99863.09
2022-09-30T23:11:57.057Z,99873.78
2022-09-30T23:14:24.960Z,99876.09
2022-09-30T23:16:52.783Z,99877.81
2022-09-30T23:19:20.753Z,99883.13
2022-09-30T23:21:48.283Z,99880.22
2022-09-30T23:24:15.860Z,99880.13
2022-09-30T23:26:43.607Z,99887.47
2022-09-30T23:29:16.319Z,99892.94
2022-09-30T23:31:43.836Z,99896.66
2022-09-30T23:34:12.054Z,99890.66
2022-09-30T23:36:39.554Z,99885.53
2022-09-30T23:39:12.716Z,99894.06
2022-09-30T23:41:40.656Z,99891.16
2022-09-30T23:44:10.140Z,99884.91
2022-09-30T23:46:37.575Z,99892.13
2022-09-30T23:49:04.983Z,99885.78
2022-09-30T23:51:33.592Z,99876.59
2022-09-30T23:54:02.361Z,99876.03
2022-09-30T23:56:29.805Z,99877.25
2022-09-30T23:58:58.890Z,99876.09
